createdAt,value
2022-09-15T00:00:07.416Z,100927.28
2022-09-15T00:02:35.243Z,100925.38
2022-09-15T00:05:01.947Z,100928.38
2022-09-15T00:07:28.445Z,100927.59
2022-09-15T00:09:55.125Z,100926.00
2022-09-15T00:12:22.026Z,100919.06
2022-09-15T00:14:48.592Z,100919.38
2022-09-15T00:17:15.293Z,100917.34
2022-09-15T00:19:41.852Z,100927.28
2022-09-15T00:22:08.284Z,100921.75
2022-09-15T00:24:35.946Z,100922.84
2022-09-15T00:27:04.229Z,100918.44
2022-09-15T00:29:30.751Z,100929.00
2022-09-15T00:31:57.415Z,100920.81
2022-09-15T00:34:23.852Z,100921.13
2022-09-15T00:36:50.423Z,100919.88
2022-09-15T00:39:17.523Z,100923.34
2022-09-15T00:41:44.090Z,100919.88
2022-09-15T00:44:16.643Z,100928.53
2022-09-15T00:46:58.924Z,100922.41
2022-09-15T00:49:37.512Z,100930.44
2022-09-15T00:52:07.380Z,100929.66
2022-09-15T00:54:50.301Z,100926.16
2022-09-15T00:57:24.441Z,100923.00
2022-09-15T00:59:52.593Z,100923.34
2022-09-15T01:02:23.469Z,100926.31
2022-09-15T01:04:57.426Z,100928.22
2022-09-15T01:07:32.302Z,100929.66
2022-09-15T01:10:13.511Z,100918.47
2022-09-15T01:12:41.530Z,100921.44
2022-09-15T01:15:08.653Z,100922.53
2022-09-15T01:17:44.086Z,100923.16
2022-09-15T01:20:47.430Z,100925.69
2022-09-15T01:23:26.676Z,100929.78
2022-09-15T01:26:35.735Z,100934.66
2022-09-15T01:29:21.798Z,100939.06
2022-09-15T01:32:21.815Z,100935.91
2022-09-15T01:35:02.881Z,100930.25
2022-09-15T01:37:39.097Z,100935.44
2022-09-15T01:40:06.857Z,100939.53
2022-09-15T01:42:34.927Z,100933.69
2022-09-15T01:45:08.919Z,100936.38
2022-09-15T01:47:37.195Z,100943.94
2022-09-15T01:50:11.578Z,100945.66
2022-09-15T01:52:44.835Z,100945.94
2022-09-15T01:55:21.055Z,100943.56
2022-09-15T01:57:48.068Z,100942.00
2022-09-15T02:00:14.776Z,100945.00
2022-09-15T02:02:45.556Z,100936.19
2022-09-15T02:05:21.630Z,100942.63
2022-09-15T02:08:05.228Z,100937.59
2022-09-15T02:10:44.804Z,100935.53
2022-09-15T02:13:20.963Z,100940.41
2022-09-15T02:15:52.332Z,100939.94
2022-09-15T02:18:30.512Z,100937.25
2022-09-15T02:21:08.112Z,100935.69
2022-09-15T02:23:40.957Z,100935.69
2022-09-15T02:26:14.226Z,100930.00
2022-09-15T02:28:43.162Z,100932.69
2022-09-15T02:31:13.906Z,100947.66
2022-09-15T02:33:45.090Z,100945.75
2022-09-15T02:36:16.591Z,100941.50
2022-09-15T02:38:54.431Z,100951.88
2022-09-15T02:41:21.184Z,100946.88
2022-09-15T02:43:49.283Z,100945.75
2022-09-15T02:46:20.034Z,100957.25
2022-09-15T02:48:47.398Z,100951.59
2022-09-15T02:51:14.411Z,100950.81
2022-09-15T02:53:41.287Z,100945.75
2022-09-15T02:56:07.842Z,100935.34
2022-09-15T02:58:34.728Z,100936.94
2022-09-15T03:01:04.278Z,100943.06
2022-09-15T03:03:32.294Z,100941.19
2022-09-15T03:06:17.543Z,100945.44
2022-09-15T03:08:49.022Z,100947.81
2022-09-15T03:11:17.428Z,100940.56
2022-09-15T03:13:43.920Z,100943.56
2022-09-15T03:16:11.913Z,100944.03
2022-09-15T03:18:39.669Z,100940.88
2022-09-15T03:21:11.905Z,100949.38
2022-09-15T03:23:38.681Z,100947.34
2022-09-15T03:26:06.252Z,100950.03
2022-09-15T03:28:32.862Z,100948.13
2022-09-15T03:30:59.581Z,100961.22
2022-09-15T03:33:26.171Z,100951.59
2022-09-15T03:35:52.999Z,100958.53
2022-09-15T03:38:20.047Z,100965.75
2022-09-15T03:41:07.549Z,100953.47
2022-09-15T03:43:35.650Z,100966.22
2022-09-15T03:46:03.479Z,100965.44
2022-09-15T03:48:31.965Z,100964.97
2022-09-15T03:50:58.522Z,100964.97
2022-09-15T03:53:25.311Z,100961.50
2022-09-15T03:55:52.106Z,100965.75
2022-09-15T03:58:19.884Z,100967.03
2022-09-15T04:00:46.859Z,100965.44
2022-09-15T04:03:15.386Z,100969.84
2022-09-15T04:05:43.268Z,100981.66
2022-09-15T04:08:13.259Z,100976.91
2022-09-15T04:10:41.249Z,100970.47
2022-09-15T04:13:09.500Z,100969.06
2022-09-15T04:15:36.243Z,100969.25
2022-09-15T04:18:04.250Z,100956.34
2022-09-15T04:20:31.490Z,100966.22
2022-09-15T04:22:58.641Z,100956.34
2022-09-15T04:25:27.716Z,100964.66
2022-09-15T04:27:54.426Z,100957.91
2022-09-15T04:30:20.970Z,100957.91
2022-09-15T04:32:47.743Z,100973.78
2022-09-15T04:35:14.294Z,100972.22
2022-09-15T04:37:40.773Z,100968.13
2022-09-15T04:40:09.219Z,100969.25
2022-09-15T04:42:36.332Z,100974.59
2022-09-15T04:45:03.051Z,100963.88
2022-09-15T04:47:29.503Z,100961.22
2022-09-15T04:49:57.832Z,100965.75
2022-09-15T04:52:24.419Z,100964.50
2022-09-15T04:54:50.909Z,100960.72
2022-09-15T04:57:17.385Z,100962.59
2022-09-15T04:59:43.882Z,100964.19
2022-09-15T05:02:10.368Z,100958.06
2022-09-15T05:04:36.967Z,100960.72
2022-09-15T05:07:03.507Z,100964.97
2022-09-15T05:09:30.987Z,100953.47
2022-09-15T05:11:57.906Z,100961.50
2022-09-15T05:14:24.465Z,100966.88
2022-09-15T05:16:50.974Z,100964.97
2022-09-15T05:19:17.617Z,100965.75
2022-09-15T05:21:45.277Z,100963.06
2022-09-15T05:24:11.832Z,100968.75
2022-09-15T05:26:38.492Z,100968.75
2022-09-15T05:29:05.025Z,100967.16
2022-09-15T05:31:33.778Z,100964.50
2022-09-15T05:34:03.137Z,100970.63
2022-09-15T05:36:30.198Z,100965.59
2022-09-15T05:38:57.121Z,100971.72
2022-09-15T05:41:26.200Z,100973.63
2022-09-15T05:43:56.821Z,100975.19
2022-09-15T05:46:26.002Z,100975.19
2022-09-15T05:48:54.416Z,100977.09
2022-09-15T05:51:21.625Z,100975.19
2022-09-15T05:53:51.161Z,100977.56
2022-09-15T05:56:20.149Z,100980.72
2022-09-15T05:58:49.257Z,100988.44
2022-09-15T06:01:22.412Z,100986.56
2022-09-15T06:03:49.432Z,100972.88
2022-09-15T06:06:17.309Z,100975.69
2022-09-15T06:08:48.285Z,100979.19
2022-09-15T06:11:20.064Z,100988.78
2022-09-15T06:13:47.496Z,100979.31
2022-09-15T06:16:22.593Z,100984.69
2022-09-15T06:18:51.334Z,100987.84
2022-09-15T06:21:24.648Z,100987.53
2022-09-15T06:23:55.810Z,100992.88
2022-09-15T06:26:23.376Z,100994.94
2022-09-15T06:28:52.581Z,100998.91
2022-09-15T06:31:21.503Z,100995.88
2022-09-15T06:33:54.085Z,100996.06
2022-09-15T06:36:23.137Z,100998.91
2022-09-15T06:38:50.260Z,101012.78
2022-09-15T06:41:17.562Z,101006.00
2022-09-15T06:43:45.083Z,101008.38
2022-09-15T06:46:17.165Z,101009.94
2022-09-15T06:48:48.113Z,101018.78
2022-09-15T06:51:17.256Z,101027.31
2022-09-15T06:53:45.280Z,101026.97
2022-09-15T06:56:14.903Z,101021.47
2022-09-15T06:58:44.742Z,101027.47
2022-09-15T07:01:13.838Z,101027.63
2022-09-15T07:03:43.282Z,101030.66
2022-09-15T07:06:12.311Z,101034.78
2022-09-15T07:08:40.328Z,101035.88
2022-09-15T07:11:07.980Z,101042.66
2022-09-15T07:13:35.095Z,101045.66
2022-09-15T07:16:04.351Z,101057.00
2022-09-15T07:18:32.124Z,101056.69
2022-09-15T07:21:04.804Z,101056.38
2022-09-15T07:23:32.788Z,101057.97
2022-09-15T07:26:11.090Z,101062.53
2022-09-15T07:28:39.223Z,101070.56
2022-09-15T07:31:08.897Z,101068.19
2022-09-15T07:33:36.227Z,101070.88
2022-09-15T07:36:05.038Z,101064.44
2022-09-15T07:38:31.732Z,101071.84
2022-09-15T07:41:06.709Z,101071.06
2022-09-15T07:43:33.384Z,101068.06
2022-09-15T07:46:02.198Z,101075.78
2022-09-15T07:48:29.280Z,101067.91
2022-09-15T07:50:55.876Z,101069.22
2022-09-15T07:53:22.873Z,101070.59
2022-09-15T07:55:53.635Z,101069.22
2022-09-15T07:58:21.123Z,101075.03
2022-09-15T08:00:48.256Z,101074.72
2022-09-15T08:03:15.941Z,101088.75
2022-09-15T08:05:45.607Z,101087.31
2022-09-15T08:08:12.598Z,101087.19
2022-09-15T08:10:41.434Z,101093.19
2022-09-15T08:13:08.552Z,101091.88
2022-09-15T08:15:37.379Z,101102.16
2022-09-15T08:18:04.954Z,101101.81
2022-09-15T08:20:32.434Z,101100.09
2022-09-15T08:22:59.918Z,101097.25
2022-09-15T08:25:26.676Z,101098.50
2022-09-15T08:27:54.132Z,101106.25
2022-09-15T08:30:21.666Z,101115.72
2022-09-15T08:32:48.708Z,101118.53
2022-09-15T08:35:16.730Z,101122.78
2022-09-15T08:37:43.390Z,101117.25
2022-09-15T08:40:19.736Z,101121.69
2022-09-15T08:42:51.537Z,101131.78
2022-09-15T08:45:25.272Z,101132.41
2022-09-15T08:47:58.680Z,101134.78
2022-09-15T08:50:41.423Z,101133.19
2022-09-15T08:53:27.647Z,101137.13
2022-09-15T08:55:56.313Z,101135.56
2022-09-15T08:58:36.284Z,101138.41
2022-09-15T09:01:22.360Z,101138.22
2022-09-15T09:04:07.891Z,101144.06
2022-09-15T09:06:57.247Z,101150.66
2022-09-15T09:09:34.621Z,101149.25
2022-09-15T09:12:32.988Z,101145.97
2022-09-15T09:15:28.951Z,101145.28
2022-09-15T09:18:25.466Z,101145.00
2022-09-15T09:21:19.098Z,101150.50
2022-09-15T09:23:52.217Z,101146.38
2022-09-15T09:26:19.658Z,101143.38
2022-09-15T09:28:55.162Z,101146.06
2022-09-15T09:31:24.803Z,101157.91
2022-09-15T09:34:00.536Z,101149.06
2022-09-15T09:36:28.214Z,101142.91
2022-09-15T09:38:56.832Z,101150.50
2022-09-15T09:41:28.603Z,101153.03
2022-09-15T09:43:56.281Z,101150.34
2022-09-15T09:46:22.895Z,101147.50
2022-09-15T09:49:05.568Z,101153.22
2022-09-15T09:51:36.419Z,101153.50
2022-09-15T09:54:09.950Z,101157.47
2022-09-15T09:56:36.506Z,101156.38
2022-09-15T09:59:03.874Z,101163.78
2022-09-15T10:01:31.162Z,101163.16
2022-09-15T10:04:21.910Z,101167.72
2022-09-15T10:06:49.716Z,101159.78
2022-09-15T10:09:18.497Z,101158.97
2022-09-15T10:11:48.485Z,101155.19
2022-09-15T10:14:26.424Z,101152.78
2022-09-15T10:17:15.688Z,101145.63
2022-09-15T10:20:01.244Z,101152.88
2022-09-15T10:22:33.370Z,101159.19
2022-09-15T10:25:02.750Z,101143.50
2022-09-15T10:27:35.698Z,101138.13
2022-09-15T10:30:14.623Z,101136.22
2022-09-15T10:32:43.210Z,101135.44
2022-09-15T10:35:10.592Z,101136.38
2022-09-15T10:37:55.568Z,101131.00
2022-09-15T10:40:50.568Z,101123.19
2022-09-15T10:43:46.445Z,101127.41
2022-09-15T10:46:24.006Z,101116.81
2022-09-15T10:49:28.048Z,101119.13
2022-09-15T10:52:29.111Z,101114.94
2022-09-15T10:55:36.754Z,101113.22
2022-09-15T10:58:24.157Z,101114.13
2022-09-15T11:01:03.188Z,101114.72
2022-09-15T11:03:56.189Z,101108.81
2022-09-15T11:06:47.644Z,101116.34
2022-09-15T11:09:26.122Z,101124.69
2022-09-15T11:12:08.265Z,101111.78
2022-09-15T11:14:58.961Z,101110.91
2022-09-15T11:17:59.005Z,101111.38
2022-09-15T11:20:56.473Z,101117.88
2022-09-15T11:23:36.521Z,101101.84
2022-09-15T11:26:15.968Z,101107.03
2022-09-15T11:28:50.618Z,101111.72
2022-09-15T11:31:22.853Z,101115.69
2022-09-15T11:34:03.347Z,101103.22
2022-09-15T11:36:47.486Z,101111.66
2022-09-15T11:39:22.297Z,101107.13
2022-09-15T11:41:56.473Z,101110.47
2022-09-15T11:44:31.203Z,101109.88
2022-09-15T11:47:22.991Z,101113.56
2022-09-15T11:49:58.379Z,101122.75
2022-09-15T11:52:51.617Z,101131.38
2022-09-15T11:55:38.637Z,101120.63
2022-09-15T11:58:26.782Z,101124.72
2022-09-15T12:01:09.166Z,101119.78
2022-09-15T12:03:43.692Z,101113.47
2022-09-15T12:06:20.680Z,101113.94
2022-09-15T12:08:53.497Z,101108.03
2022-09-15T12:11:24.213Z,101105.69
2022-09-15T12:13:52.167Z,101101.88
2022-09-15T12:16:20.771Z,101095.44
2022-09-15T12:19:24.803Z,101103.16
2022-09-15T12:21:59.483Z,101091.72
2022-09-15T12:24:52.176Z,101096.75
2022-09-15T12:27:20.785Z,101085.28
2022-09-15T12:29:52.644Z,101107.38
2022-09-15T12:32:35.057Z,101105.47
2022-09-15T12:35:19.236Z,101110.66
2022-09-15T12:37:54.120Z,101109.00
2022-09-15T12:40:40.463Z,101117.53
2022-09-15T12:43:19.996Z,101110.34
2022-09-15T12:46:00.195Z,101122.81
2022-09-15T12:48:30.868Z,101123.28
2022-09-15T12:51:01.476Z,101128.75
2022-09-15T12:56:08.554Z,101135.66
2022-09-15T12:58:39.932Z,101144.88
2022-09-15T13:01:30.198Z,101146.63
2022-09-15T13:03:58.936Z,101147.41
2022-09-15T13:06:29.246Z,101164.59
2022-09-15T13:09:07.035Z,101158.38
2022-09-15T13:14:32.779Z,101154.00
2022-09-15T13:17:07.027Z,101156.69
2022-09-15T13:19:43.649Z,101154.66
2022-09-15T13:22:35.777Z,101153.91
2022-09-15T13:25:18.269Z,101164.81
2022-09-15T13:27:54.167Z,101159.66
2022-09-15T13:30:40.561Z,101151.09
2022-09-15T13:39:58.598Z,101142.84
2022-09-15T13:42:50.652Z,101142.31
2022-09-15T13:45:42.935Z,101140.97
2022-09-15T13:48:55.380Z,101142.34
2022-09-15T13:51:30.982Z,101138.31
2022-09-15T13:54:03.398Z,101134.19
2022-09-15T13:56:35.588Z,101145.16
2022-09-15T13:59:11.213Z,101133.41
2022-09-15T14:01:42.539Z,101132.63
2022-09-15T14:04:16.904Z,101127.88
2022-09-15T14:06:50.903Z,101136.31
2022-09-15T14:09:26.776Z,101135.72
2022-09-15T14:11:59.414Z,101146.25
2022-09-15T14:14:36.392Z,101149.88
2022-09-15T14:17:03.374Z,101155.94
2022-09-15T14:19:38.851Z,101162.53
2022-09-15T14:22:26.169Z,101159.31
2022-09-15T14:24:54.095Z,101156.94
2022-09-15T14:27:26.103Z,101167.59
2022-09-15T14:29:55.404Z,101167.91
2022-09-15T14:32:26.004Z,101164.69
2022-09-15T14:34:54.350Z,101166.28
2022-09-15T14:37:31.721Z,101163.06
2022-09-15T14:40:01.246Z,101158.16
2022-09-15T14:42:32.794Z,101163.81
2022-09-15T14:48:01.191Z,101165.97
2022-09-15T14:50:33.191Z,101160.09
2022-09-15T14:53:08.781Z,101168.56
2022-09-15T14:55:48.088Z,101162.31
2022-09-15T14:58:30.240Z,101169.25
2022-09-15T15:01:11.784Z,101164.19
2022-09-15T15:03:49.537Z,101156.06
2022-09-15T15:06:35.351Z,101160.25
2022-09-15T15:09:41.491Z,101156.00
2022-09-15T15:12:31.227Z,101156.91
2022-09-15T15:15:00.430Z,101156.63
2022-09-15T15:17:44.132Z,101157.63
2022-09-15T15:20:17.756Z,101150.22
2022-09-15T15:22:46.375Z,101165.00
2022-09-15T15:25:23.972Z,101163.09
2022-09-15T15:27:52.981Z,101150.03
2022-09-15T15:30:29.798Z,101155.75
2022-09-15T15:32:59.329Z,101157.19
2022-09-15T15:35:26.671Z,101155.63
2022-09-15T15:38:13.055Z,101169.13
2022-09-15T15:40:41.921Z,101167.03
2022-09-15T15:43:23.518Z,101158.03
2022-09-15T15:46:03.709Z,101162.66
2022-09-15T15:48:37.934Z,101173.72
2022-09-15T15:51:06.609Z,101173.59
2022-09-15T15:53:34.293Z,101173.81
2022-09-15T15:56:01.176Z,101186.72
2022-09-15T15:58:28.035Z,101188.94
2022-09-15T16:00:58.888Z,101182.50
2022-09-15T16:03:25.948Z,101184.09
2022-09-15T16:05:57.526Z,101188.53
2022-09-15T16:08:32.680Z,101200.69
2022-09-15T16:11:01.754Z,101196.50
2022-09-15T16:13:28.755Z,101204.59
2022-09-15T16:15:57.974Z,101205.41
2022-09-15T16:18:24.899Z,101201.97
2022-09-15T16:20:54.662Z,101192.50
2022-09-15T16:23:24.403Z,101193.78
2022-09-15T16:26:01.567Z,101198.38
2022-09-15T16:28:31.648Z,101202.63
2022-09-15T16:30:59.297Z,101211.19
2022-09-15T16:33:26.591Z,101202.31
2022-09-15T16:36:03.854Z,101206.94
2022-09-15T16:38:30.504Z,101209.91
2022-09-15T16:40:57.257Z,101202.47
2022-09-15T16:43:24.199Z,101209.16
2022-09-15T16:45:52.105Z,101205.34
2022-09-15T16:48:19.019Z,101208.69
2022-09-15T16:53:35.245Z,101210.56
2022-09-15T16:56:02.728Z,101212.63
2022-09-15T16:58:29.544Z,101201.75
2022-09-15T17:00:57.219Z,101208.69
2022-09-15T17:03:25.614Z,101200.16
2022-09-15T17:05:55.443Z,101192.09
2022-09-15T17:08:29.597Z,101196.84
2022-09-15T17:10:57.991Z,101186.75
2022-09-15T17:13:30.100Z,101197.19
2022-09-15T17:15:57.997Z,101192.13
2022-09-15T17:18:25.148Z,101202.38
2022-09-15T17:20:52.437Z,101206.50
2022-09-15T17:23:23.462Z,101198.75
2022-09-15T17:25:58.523Z,101199.84
2022-09-15T17:28:30.357Z,101206.00
2022-09-15T17:30:59.668Z,101204.25
2022-09-15T17:33:27.952Z,101210.75
2022-09-15T17:35:55.259Z,101202.22
2022-09-15T17:38:22.523Z,101205.97
2022-09-15T17:40:52.072Z,101207.88
2022-09-15T17:43:21.186Z,101212.00
2022-09-15T17:45:48.830Z,101211.69
2022-09-15T17:48:16.846Z,101211.22
2022-09-15T17:50:45.283Z,101211.69
2022-09-15T17:53:26.696Z,101216.09
2022-09-15T17:55:54.712Z,101219.88
2022-09-15T17:58:22.541Z,101215.63
2022-09-15T18:00:51.460Z,101217.66
2022-09-15T18:03:23.381Z,101229.63
2022-09-15T18:05:51.287Z,101210.19
2022-09-15T18:08:18.179Z,101221.56
2022-09-15T18:10:45.356Z,101223.28
2022-09-15T18:13:17.965Z,101224.06
2022-09-15T18:15:47.455Z,101227.88
2022-09-15T18:18:17.280Z,101229.44
2022-09-15T18:20:44.324Z,101235.91
2022-09-15T18:23:18.824Z,101241.56
2022-09-15T18:25:47.170Z,101258.84
2022-09-15T18:28:14.144Z,101271.78
2022-09-15T18:30:43.486Z,101275.13
2022-09-15T18:33:19.340Z,101263.72
2022-09-15T18:35:46.424Z,101279.84
2022-09-15T18:38:12.992Z,101270.66
2022-09-15T18:40:46.892Z,101281.44
2022-09-15T18:43:13.721Z,101277.69
2022-09-15T18:45:42.617Z,101280.94
2022-09-15T18:48:12.698Z,101282.63
2022-09-15T18:50:41.549Z,101297.69
2022-09-15T18:53:08.494Z,101288.88
2022-09-15T18:55:35.228Z,101283.31
2022-09-15T18:58:02.669Z,101277.97
2022-09-15T19:00:29.579Z,101271.84
2022-09-15T19:02:58.497Z,101268.06
2022-09-15T19:05:26.822Z,101264.31
2022-09-15T19:07:53.540Z,101272.56
2022-09-15T19:10:20.403Z,101273.53
2022-09-15T19:12:47.188Z,101278.56
2022-09-15T19:15:14.805Z,101278.88
2022-09-15T19:17:43.046Z,101288.19
2022-09-15T19:20:12.740Z,101282.84
2022-09-15T19:22:41.170Z,101283.81
2022-09-15T19:25:09.975Z,101280.06
2022-09-15T19:27:38.126Z,101280.94
2022-09-15T19:30:05.794Z,101278.28
2022-09-15T19:32:32.859Z,101274.81
2022-09-15T19:34:59.610Z,101273.72
2022-09-15T19:39:54.239Z,101283.63
2022-09-15T19:42:21.935Z,101280.94
2022-09-15T19:44:49.562Z,101280.66
2022-09-15T19:47:16.679Z,101288.97
2022-09-15T19:49:43.317Z,101286.91
2022-09-15T19:52:11.270Z,101296.28
2022-09-15T19:54:37.823Z,101291.84
2022-09-15T19:57:04.727Z,101296.41
2022-09-15T19:59:32.162Z,101298.28
2022-09-15T20:02:00.645Z,101303.22
2022-09-15T20:04:28.707Z,101304.41
2022-09-15T20:06:55.277Z,101307.97
2022-09-15T20:09:21.861Z,101306.28
2022-09-15T20:11:48.948Z,101311.78
2022-09-15T20:14:15.833Z,101307.63
2022-09-15T20:16:42.613Z,101295.97
2022-09-15T20:19:09.766Z,101291.97
2022-09-15T20:21:49.947Z,101290.13
2022-09-15T20:24:17.707Z,101295.97
2022-09-15T20:26:44.425Z,101294.88
2022-09-15T20:29:11.685Z,101295.66
2022-09-15T20:31:38.558Z,101299.94
2022-09-15T20:34:06.738Z,101300.72
2022-09-15T20:36:36.072Z,101307.63
2022-09-15T20:39:05.421Z,101295.09
2022-09-15T20:41:31.994Z,101305.44
2022-09-15T20:43:59.178Z,101307.63
2022-09-15T20:46:28.918Z,101306.34
2022-09-15T20:48:56.154Z,101310.91
2022-09-15T20:51:25.638Z,101300.50
2022-09-15T20:53:55.110Z,101297.03
2022-09-15T20:56:25.859Z,101295.47
2022-09-15T20:58:58.416Z,101295.47
2022-09-15T21:01:27.390Z,101301.31
2022-09-15T21:03:56.332Z,101305.06
2022-09-15T21:06:27.798Z,101300.81
2022-09-15T21:08:56.114Z,101303.47
2022-09-15T21:11:24.099Z,101300.81
2022-09-15T21:13:50.895Z,101298.44
2022-09-15T21:16:20.734Z,101308.59
2022-09-15T21:18:48.045Z,101309.41
2022-09-15T21:21:20.625Z,101305.44
2022-09-15T21:23:51.724Z,101311.06
2022-09-15T21:26:20.484Z,101304.44
2022-09-15T21:28:50.851Z,101309.25
2022-09-15T21:31:20.638Z,101318.66
2022-09-15T21:33:48.080Z,101310.41
2022-09-15T21:36:18.240Z,101320.31
2022-09-15T21:38:44.704Z,101324.34
2022-09-15T21:41:14.547Z,101317.44
2022-09-15T21:43:43.138Z,101319.59
2022-09-15T21:46:16.301Z,101321.47
2022-09-15T21:48:44.243Z,101307.91
2022-09-15T21:51:14.388Z,101322.03
2022-09-15T21:53:43.465Z,101320.75
2022-09-15T21:56:14.354Z,101323.19
2022-09-15T21:58:43.182Z,101320.84
2022-09-15T22:01:11.991Z,101321.13
2022-09-15T22:03:42.265Z,101320.91
2022-09-15T22:06:10.767Z,101323.06
2022-09-15T22:08:38.798Z,101329.19
2022-09-15T22:11:06.191Z,101331.09
2022-09-15T22:13:35.209Z,101332.97
2022-09-15T22:16:04.576Z,101324.97
2022-09-15T22:18:31.301Z,101320.13
2022-09-15T22:21:09.407Z,101321.69
2022-09-15T22:23:36.325Z,101319.53
2022-09-15T22:26:04.374Z,101311.53
2022-09-15T22:28:31.704Z,101307.28
2022-09-15T22:31:03.998Z,101290.97
2022-09-15T22:33:30.949Z,101294.44
2022-09-15T22:35:58.101Z,101287.22
2022-09-15T22:38:26.977Z,101293.06
2022-09-15T22:40:54.196Z,101301.34
2022-09-15T22:43:21.711Z,101297.88
2022-09-15T22:45:49.631Z,101293.66
2022-09-15T22:48:16.276Z,101292.34
2022-09-15T22:50:46.086Z,101291.53
2022-09-15T22:53:13.080Z,101289.09
2022-09-15T22:55:40.858Z,101294.44
2022-09-15T22:58:08.882Z,101296.09
2022-09-15T23:00:38.358Z,101296.97
2022-09-15T23:03:06.205Z,101294.09
2022-09-15T23:05:34.176Z,101297.31
2022-09-15T23:08:00.904Z,101293.66
2022-09-15T23:10:28.641Z,101295.03
2022-09-15T23:12:55.965Z,101297.19
2022-09-15T23:15:22.496Z,101297.00
2022-09-15T23:17:49.107Z,101299.44
2022-09-15T23:20:19.061Z,101302.66
2022-09-15T23:22:47.113Z,101317.38
2022-09-15T23:25:13.777Z,101308.88
2022-09-15T23:27:40.324Z,101310.75
2022-09-15T23:30:08.328Z,101313.44
2022-09-15T23:32:34.909Z,101312.34
2022-09-15T23:35:01.433Z,101309.09
2022-09-15T23:37:27.877Z,101296.25
2022-09-15T23:39:54.458Z,101290.66
2022-09-15T23:42:20.937Z,101293.59
2022-09-15T23:44:47.502Z,101292.00
2022-09-15T23:47:14.039Z,101294.97
2022-09-15T23:49:40.613Z,101298.72
2022-09-15T23:52:07.253Z,101290.47
2022-09-15T23:54:33.827Z,101295.81
2022-09-15T23:57:00.348Z,101293.97
2022-09-15T23:59:26.767Z,101294.75
